createdAt,value
2022-09-09T00:02:51.423Z,101207.57
2022-09-09T00:06:24.357Z,101202.86
2022-09-09T00:09:34.773Z,101213.03
2022-09-09T00:13:08.698Z,101206.27
2022-09-09T00:16:24.104Z,101206.22
2022-09-09T00:19:50.989Z,101209.25
2022-09-09T00:23:00.784Z,101202.84
2022-09-09T00:26:31.986Z,101207.47
2022-09-09T00:29:58.187Z,101208.11
2022-09-09T00:33:16.467Z,101207.19
2022-09-09T00:36:28.329Z,101209.00
2022-09-09T00:39:50.511Z,101218.42
2022-09-09T00:43:00.182Z,101215.27
2022-09-09T00:46:58.428Z,101209.95
2022-09-09T00:50:33.867Z,101216.20
2022-09-09T00:54:33.326Z,101217.51
2022-09-09T00:57:45.545Z,101211.62
2022-09-09T01:01:22.132Z,101211.81
2022-09-09T01:04:32.323Z,101217.80
2022-09-09T01:07:39.348Z,101215.08
2022-09-09T01:11:06.594Z,101213.63
2022-09-09T01:14:34.101Z,101226.55
2022-09-09T01:17:47.266Z,101226.98
2022-09-09T01:21:36.452Z,101228.06
2022-09-09T01:25:21.514Z,101229.52
2022-09-09T01:28:43.363Z,101231.02
2022-09-09T01:31:55.703Z,101225.18
2022-09-09T01:35:02.725Z,101226.78
2022-09-09T01:38:12.184Z,101219.23
2022-09-09T01:41:18.759Z,101222.11
2022-09-09T01:44:21.864Z,101221.95
2022-09-09T01:47:15.904Z,101230.22
2022-09-09T01:50:29.309Z,101223.11
2022-09-09T01:53:36.322Z,101220.66
2022-09-09T01:57:14.737Z,101225.01
2022-09-09T02:00:27.772Z,101221.06
2022-09-09T02:03:41.562Z,101225.44
2022-09-09T02:06:53.399Z,101236.34
2022-09-09T02:10:00.919Z,101236.87
2022-09-09T02:13:17.137Z,101236.43
2022-09-09T02:16:28.663Z,101240.42
2022-09-09T02:19:41.636Z,101239.72
2022-09-09T02:22:48.689Z,101234.63
2022-09-09T02:25:55.969Z,101243.02
2022-09-09T02:29:06.788Z,101246.17
2022-09-09T02:32:16.740Z,101244.42
2022-09-09T02:35:32.003Z,101244.28
2022-09-09T02:38:37.889Z,101237.75
2022-09-09T02:41:51.095Z,101243.34
2022-09-09T02:44:57.761Z,101253.16
2022-09-09T02:48:28.748Z,101258.55
2022-09-09T02:51:51.303Z,101257.95
2022-09-09T02:54:59.195Z,101272.21
2022-09-09T02:58:06.679Z,101273.09
2022-09-09T03:01:13.464Z,101281.61
2022-09-09T03:04:22.405Z,101281.67
2022-09-09T03:07:30.310Z,101287.97
2022-09-09T03:10:35.297Z,101286.88
2022-09-09T03:13:42.670Z,101293.00
2022-09-09T03:16:50.849Z,101289.53
2022-09-09T03:20:01.265Z,101288.06
2022-09-09T03:23:15.672Z,101284.98
2022-09-09T03:26:20.206Z,101291.45
2022-09-09T03:29:27.720Z,101295.61
2022-09-09T03:32:35.109Z,101293.09
2022-09-09T03:35:44.097Z,101292.13
2022-09-09T03:38:51.428Z,101283.70
2022-09-09T03:41:59.339Z,101290.44
2022-09-09T03:45:07.083Z,101295.53
2022-09-09T03:48:14.245Z,101288.72
2022-09-09T03:51:20.320Z,101287.36
2022-09-09T03:54:27.170Z,101291.83
2022-09-09T03:57:33.663Z,101296.78
2022-09-09T04:00:41.404Z,101301.36
2022-09-09T04:03:47.527Z,101307.33
2022-09-09T04:06:53.898Z,101314.23
2022-09-09T04:10:03.775Z,101312.31
2022-09-09T04:13:10.626Z,101312.08
2022-09-09T04:16:18.376Z,101326.05
2022-09-09T04:19:25.867Z,101322.78
2022-09-09T04:22:32.316Z,101331.50
2022-09-09T04:25:39.163Z,101333.05
2022-09-09T04:28:46.631Z,101330.64
2022-09-09T04:31:54.014Z,101339.88
2022-09-09T04:35:00.421Z,101334.34
2022-09-09T04:38:07.382Z,101339.34
2022-09-09T04:41:13.842Z,101338.02
2022-09-09T04:44:20.758Z,101344.12
2022-09-09T04:47:25.990Z,101346.64
2022-09-09T04:50:32.307Z,101333.16
2022-09-09T04:53:37.227Z,101330.59
2022-09-09T04:56:44.134Z,101333.19
2022-09-09T04:59:50.851Z,101326.75
2022-09-09T05:02:59.090Z,101330.17
2022-09-09T05:06:00.082Z,101328.31
2022-09-09T05:08:57.928Z,101332.98
2022-09-09T05:12:04.093Z,101335.19
2022-09-09T05:15:13.991Z,101337.80
2022-09-09T05:18:21.014Z,101339.98
2022-09-09T05:21:29.047Z,101336.44
2022-09-09T05:24:35.296Z,101341.39
2022-09-09T05:27:41.836Z,101341.70
2022-09-09T05:30:48.536Z,101357.09
2022-09-09T05:33:54.694Z,101371.31
2022-09-09T05:37:06.650Z,101372.34
2022-09-09T05:40:21.496Z,101373.05
2022-09-09T05:43:28.931Z,101359.23
2022-09-09T05:49:55.132Z,101362.77
2022-09-09T05:53:01.057Z,101370.52
2022-09-09T05:56:22.009Z,101368.77
2022-09-09T05:59:32.864Z,101368.91
2022-09-09T06:02:48.738Z,101378.28
2022-09-09T06:06:04.684Z,101373.79
2022-09-09T06:09:25.159Z,101383.53
2022-09-09T06:12:34.719Z,101377.83
2022-09-09T06:15:43.324Z,101378.77
2022-09-09T06:19:08.523Z,101383.29
2022-09-09T06:22:14.775Z,101374.11
2022-09-09T06:25:22.095Z,101387.93
2022-09-09T06:28:27.631Z,101392.43
2022-09-09T06:31:42.741Z,101388.52
2022-09-09T06:34:44.864Z,101395.59
2022-09-09T06:37:31.327Z,101402.50
2022-09-09T06:40:24.257Z,101407.69
2022-09-09T06:43:10.134Z,101404.30
2022-09-09T06:46:10.069Z,101405.03
2022-09-09T06:48:58.541Z,101407.64
2022-09-09T06:51:51.452Z,101410.91
2022-09-09T06:54:38.674Z,101407.34
2022-09-09T06:57:37.188Z,101413.70
2022-09-09T07:00:28.294Z,101404.59
2022-09-09T07:03:37.070Z,101413.73
2022-09-09T07:06:54.531Z,101422.33
2022-09-09T07:10:03.413Z,101411.70
2022-09-09T07:13:14.219Z,101416.00
2022-09-09T07:16:29.081Z,101418.05
2022-09-09T07:19:35.090Z,101416.50
2022-09-09T07:22:41.702Z,101409.10
2022-09-09T07:25:47.032Z,101409.09
2022-09-09T07:28:56.152Z,101410.67
2022-09-09T07:32:04.762Z,101405.83
2022-09-09T07:35:12.011Z,101402.19
2022-09-09T07:38:20.282Z,101401.66
2022-09-09T07:41:36.681Z,101408.20
2022-09-09T07:44:44.301Z,101414.88
2022-09-09T07:47:55.098Z,101412.98
2022-09-09T07:51:03.637Z,101414.33
2022-09-09T07:54:17.759Z,101404.66
2022-09-09T07:57:25.378Z,101389.27
2022-09-09T08:00:36.299Z,101398.89
2022-09-09T08:03:42.852Z,101400.41
2022-09-09T08:06:54.437Z,101396.61
2022-09-09T08:10:02.470Z,101400.70
2022-09-09T08:13:18.410Z,101396.23
2022-09-09T08:16:25.699Z,101397.91
2022-09-09T08:19:33.532Z,101393.72
2022-09-09T08:22:46.683Z,101388.88
2022-09-09T08:25:53.920Z,101387.13
2022-09-09T08:29:01.783Z,101396.41
2022-09-09T08:32:13.578Z,101392.08
2022-09-09T08:35:21.636Z,101382.19
2022-09-09T08:38:29.055Z,101393.55
2022-09-09T08:42:10.199Z,101382.14
2022-09-09T08:45:38.249Z,101388.47
2022-09-09T08:49:08.389Z,101382.70
2022-09-09T08:52:15.849Z,101383.00
2022-09-09T08:55:45.941Z,101375.98
2022-09-09T08:59:07.873Z,101393.72
2022-09-09T09:02:42.588Z,101384.89
2022-09-09T09:10:42.696Z,101374.25
2022-09-09T09:14:05.019Z,101373.12
2022-09-09T09:17:21.020Z,101372.03
2022-09-09T09:20:30.246Z,101380.43
2022-09-09T09:23:46.598Z,101385.20
2022-09-09T09:26:52.993Z,101384.69
2022-09-09T09:30:26.883Z,101385.84
2022-09-09T09:33:35.191Z,101381.29
2022-09-09T09:37:03.429Z,101373.22
2022-09-09T09:40:10.084Z,101377.28
2022-09-09T09:43:17.643Z,101378.84
2022-09-09T09:46:41.151Z,101378.32
2022-09-09T09:49:53.696Z,101373.20
2022-09-09T09:53:14.133Z,101376.27
2022-09-09T09:56:26.185Z,101364.51
2022-09-09T09:59:52.089Z,101368.69
2022-09-09T10:03:01.739Z,101358.72
2022-09-09T10:06:18.672Z,101354.12
2022-09-09T10:09:43.925Z,101356.95
2022-09-09T10:13:16.788Z,101364.38
2022-09-09T10:16:32.431Z,101365.57
2022-09-09T10:19:52.552Z,101359.89
2022-09-09T10:23:06.910Z,101353.08
2022-09-09T10:26:31.283Z,101353.22
2022-09-09T10:29:54.515Z,101358.77
2022-09-09T10:33:25.329Z,101355.59
2022-09-09T10:36:39.685Z,101362.57
2022-09-09T10:39:53.662Z,101370.69
2022-09-09T10:43:03.487Z,101370.19
2022-09-09T10:46:17.210Z,101364.78
2022-09-09T10:50:13.803Z,101364.31
2022-09-09T10:53:32.445Z,101353.91
2022-09-09T10:56:40.282Z,101348.84
2022-09-09T10:59:53.652Z,101361.22
2022-09-09T11:03:12.206Z,101359.42
2022-09-09T11:06:33.998Z,101354.56
2022-09-09T11:10:12.611Z,101356.02
2022-09-09T11:13:18.990Z,101360.50
2022-09-09T11:16:38.680Z,101360.19
2022-09-09T11:19:55.463Z,101354.97
2022-09-09T11:23:26.151Z,101364.72
2022-09-09T11:26:40.806Z,101361.64
2022-09-09T11:30:53.678Z,101360.05
2022-09-09T11:34:09.086Z,101362.44
2022-09-09T11:37:59.193Z,101361.04
2022-09-09T11:41:22.646Z,101353.73
2022-09-09T11:47:46.812Z,101348.38
2022-09-09T11:50:55.507Z,101339.15
2022-09-09T11:54:15.631Z,101345.01
2022-09-09T11:57:26.827Z,101336.37
2022-09-09T12:00:59.685Z,101341.63
2022-09-09T12:04:22.021Z,101336.37
2022-09-09T12:07:39.146Z,101329.31
2022-09-09T12:10:52.160Z,101332.27
2022-09-09T12:14:02.726Z,101325.30
2022-09-09T12:17:10.541Z,101320.98
2022-09-09T12:20:53.590Z,101317.56
2022-09-09T12:24:07.669Z,101332.45
2022-09-09T12:27:39.308Z,101328.54
2022-09-09T12:30:50.465Z,101324.77
2022-09-09T12:34:00.826Z,101323.06
2022-09-09T12:37:17.189Z,101332.15
2022-09-09T12:40:44.819Z,101330.02
2022-09-09T12:43:51.605Z,101341.67
2022-09-09T12:47:00.549Z,101335.15
2022-09-09T12:50:08.744Z,101335.67
2022-09-09T12:53:26.325Z,101345.09
2022-09-09T12:56:44.269Z,101334.28
2022-09-09T12:59:56.971Z,101341.33
2022-09-09T13:03:13.547Z,101337.16
2022-09-09T13:06:41.889Z,101337.59
2022-09-09T13:09:48.981Z,101333.33
2022-09-09T13:12:55.279Z,101332.67
2022-09-09T13:16:13.375Z,101343.57
2022-09-09T13:19:24.451Z,101336.95
2022-09-09T13:22:38.915Z,101344.19
2022-09-09T13:25:46.345Z,101340.25
2022-09-09T13:28:53.907Z,101335.08
2022-09-09T13:32:01.538Z,101335.20
2022-09-09T13:35:17.413Z,101331.34
2022-09-09T13:38:27.747Z,101328.16
2022-09-09T13:41:38.492Z,101329.33
2022-09-09T13:44:54.509Z,101332.30
2022-09-09T13:48:03.128Z,101334.13
2022-09-09T13:51:19.258Z,101337.58
2022-09-09T13:54:28.772Z,101344.52
2022-09-09T13:57:40.298Z,101335.84
2022-09-09T14:00:47.841Z,101339.63
2022-09-09T14:03:54.892Z,101343.02
2022-09-09T14:07:01.344Z,101338.33
2022-09-09T14:10:09.275Z,101333.20
2022-09-09T14:13:20.454Z,101330.52
2022-09-09T14:16:27.656Z,101325.49
2022-09-09T14:19:32.763Z,101323.27
2022-09-09T14:22:38.980Z,101327.44
2022-09-09T14:25:44.751Z,101331.82
2022-09-09T14:28:55.921Z,101323.26
2022-09-09T14:32:01.269Z,101329.88
2022-09-09T14:35:08.184Z,101320.57
2022-09-09T14:38:18.800Z,101328.02
2022-09-09T14:41:25.331Z,101325.57
2022-09-09T14:44:32.034Z,101335.27
2022-09-09T14:47:37.959Z,101334.13
2022-09-09T14:50:45.235Z,101339.14
2022-09-09T14:53:50.652Z,101342.41
2022-09-09T14:56:55.901Z,101349.36
2022-09-09T15:00:01.661Z,101348.46
2022-09-09T15:03:10.933Z,101353.88
2022-09-09T15:06:24.667Z,101353.84
2022-09-09T15:09:30.715Z,101358.03
2022-09-09T15:12:36.726Z,101357.36
2022-09-09T15:15:42.504Z,101364.56
2022-09-09T15:18:52.858Z,101366.78
2022-09-09T15:22:00.035Z,101364.16
2022-09-09T15:25:06.531Z,101367.09
2022-09-09T15:28:12.764Z,101364.12
2022-09-09T15:31:23.462Z,101360.83
2022-09-09T15:34:30.178Z,101365.23
2022-09-09T15:37:35.913Z,101374.28
2022-09-09T15:40:42.033Z,101370.00
2022-09-09T15:43:48.027Z,101371.77
2022-09-09T15:47:00.108Z,101370.27
2022-09-09T15:50:05.422Z,101372.86
2022-09-09T15:53:10.693Z,101376.85
2022-09-09T15:56:16.520Z,101376.69
2022-09-09T15:59:22.435Z,101367.38
2022-09-09T16:02:28.412Z,101369.45
2022-09-09T16:05:33.522Z,101375.48
2022-09-09T16:08:38.564Z,101381.13
2022-09-09T16:11:48.880Z,101382.16
2022-09-09T16:14:54.842Z,101388.99
2022-09-09T16:18:00.341Z,101391.48
2022-09-09T16:21:12.694Z,101392.81
2022-09-09T16:24:18.496Z,101390.51
2022-09-09T16:27:25.785Z,101399.89
2022-09-09T16:30:31.934Z,101391.87
2022-09-09T16:33:39.075Z,101398.84
2022-09-09T16:36:48.141Z,101396.88
2022-09-09T16:39:55.180Z,101405.91
2022-09-09T16:43:02.315Z,101412.19
2022-09-09T16:46:12.323Z,101410.20
2022-09-09T16:49:19.396Z,101409.38
2022-09-09T16:52:24.985Z,101410.27
2022-09-09T16:55:30.049Z,101414.45
2022-09-09T16:58:36.732Z,101416.56
2022-09-09T17:01:49.267Z,101426.25
2022-09-09T17:04:55.546Z,101424.22
2022-09-09T17:08:01.343Z,101427.70
2022-09-09T17:11:07.142Z,101423.59
2022-09-09T17:14:13.832Z,101426.89
2022-09-09T17:17:31.713Z,101428.44
2022-09-09T17:20:36.847Z,101424.84
2022-09-09T17:23:37.401Z,101415.73
2022-09-09T17:26:46.056Z,101420.58
2022-09-09T17:29:52.286Z,101422.82
2022-09-09T17:32:57.974Z,101415.59
2022-09-09T17:36:06.319Z,101419.39
2022-09-09T17:39:12.514Z,101424.73
2022-09-09T17:42:19.421Z,101428.56
2022-09-09T17:45:24.745Z,101430.11
2022-09-09T17:48:31.309Z,101432.34
2022-09-09T17:51:41.495Z,101433.70
2022-09-09T17:54:49.605Z,101446.80
2022-09-09T17:57:56.523Z,101449.88
2022-09-09T18:01:04.584Z,101452.12
2022-09-09T18:04:10.588Z,101449.02
2022-09-09T18:07:19.191Z,101458.16
2022-09-09T18:10:26.126Z,101460.39
2022-09-09T18:13:31.531Z,101459.53
2022-09-09T18:16:37.251Z,101461.42
2022-09-09T18:19:44.162Z,101462.08
2022-09-09T18:22:49.926Z,101460.88
2022-09-09T18:25:56.520Z,101468.11
2022-09-09T18:29:10.481Z,101466.17
2022-09-09T18:32:22.675Z,101472.73
2022-09-09T18:35:29.262Z,101469.61
2022-09-09T18:38:36.346Z,101474.92
2022-09-09T18:41:50.070Z,101467.84
2022-09-09T18:44:56.477Z,101469.06
2022-09-09T18:48:04.857Z,101466.98
2022-09-09T18:51:10.982Z,101462.69
2022-09-09T18:54:23.373Z,101460.45
2022-09-09T18:57:34.533Z,101457.36
2022-09-09T19:00:41.041Z,101459.06
2022-09-09T19:03:49.159Z,101459.73
2022-09-09T19:07:00.828Z,101463.53
2022-09-09T19:10:06.274Z,101459.75
2022-09-09T19:13:13.285Z,101459.05
2022-09-09T19:16:23.743Z,101471.59
2022-09-09T19:19:27.549Z,101477.09
2022-09-09T19:22:35.168Z,101477.42
2022-09-09T19:25:44.557Z,101482.59
2022-09-09T19:28:51.089Z,101482.38
2022-09-09T19:32:36.841Z,101488.59
2022-09-09T19:35:10.163Z,101486.00
2022-09-09T19:38:17.099Z,101492.17
2022-09-09T19:41:29.992Z,101493.34
2022-09-09T19:44:35.709Z,101490.77
2022-09-09T19:47:43.196Z,101500.22
2022-09-09T19:50:51.655Z,101495.05
2022-09-09T19:54:04.165Z,101492.80
2022-09-09T19:57:10.759Z,101488.52
2022-09-09T20:00:18.128Z,101491.89
2022-09-09T20:03:26.256Z,101497.39
2022-09-09T20:06:35.565Z,101498.72
2022-09-09T20:09:45.357Z,101503.88
2022-09-09T20:12:52.421Z,101510.92
2022-09-09T20:15:59.798Z,101504.22
2022-09-09T20:19:10.136Z,101507.13
2022-09-09T20:22:18.402Z,101509.00
2022-09-09T20:25:24.630Z,101496.97
2022-09-09T20:28:30.422Z,101498.51
2022-09-09T20:31:43.728Z,101499.67
2022-09-09T20:34:49.228Z,101510.66
2022-09-09T20:37:56.559Z,101510.33
2022-09-09T20:41:03.502Z,101514.79
2022-09-09T20:44:09.519Z,101513.41
2022-09-09T20:47:16.929Z,101515.66
2022-09-09T20:50:25.208Z,101519.45
2022-09-09T20:53:32.200Z,101517.91
2022-09-09T20:56:40.174Z,101518.74
2022-09-09T20:59:46.215Z,101524.41
2022-09-09T21:02:54.485Z,101527.52
2022-09-09T21:06:01.659Z,101531.64
2022-09-09T21:09:08.911Z,101533.36
2022-09-09T21:12:15.713Z,101526.31
2022-09-09T21:15:24.485Z,101531.98
2022-09-09T21:18:32.796Z,101533.84
2022-09-09T21:21:33.880Z,101539.84
2022-09-09T21:24:40.049Z,101548.41
2022-09-09T21:27:45.956Z,101540.66
2022-09-09T21:30:54.487Z,101537.73
2022-09-09T21:33:53.823Z,101538.41
2022-09-09T21:37:00.731Z,101538.73
2022-09-09T21:40:09.344Z,101533.72
2022-09-09T21:43:17.515Z,101543.13
2022-09-09T21:46:30.137Z,101539.17
2022-09-09T21:49:36.711Z,101546.69
2022-09-09T21:52:43.515Z,101539.98
2022-09-09T21:55:52.176Z,101538.28
2022-09-09T21:58:58.667Z,101534.48
2022-09-09T22:02:06.121Z,101549.05
2022-09-09T22:05:11.088Z,101542.88
2022-09-09T22:08:17.845Z,101540.95
2022-09-09T22:11:26.990Z,101542.99
2022-09-09T22:14:34.257Z,101547.43
2022-09-09T22:17:39.435Z,101558.39
2022-09-09T22:20:49.904Z,101553.56
2022-09-09T22:23:57.550Z,101553.72
2022-09-09T22:27:04.175Z,101556.97
2022-09-09T22:30:11.767Z,101559.00
2022-09-09T22:33:19.083Z,101556.25
2022-09-09T22:36:27.510Z,101562.99
2022-09-09T22:39:33.938Z,101552.35
2022-09-09T22:42:39.508Z,101552.52
2022-09-09T22:45:45.312Z,101554.22
2022-09-09T22:48:51.148Z,101559.06
2022-09-09T22:51:58.361Z,101549.77
2022-09-09T22:55:05.702Z,101559.37
2022-09-09T22:58:11.687Z,101554.70
2022-09-09T23:01:28.073Z,101558.11
2022-09-09T23:04:34.650Z,101566.34
2022-09-09T23:07:40.047Z,101568.59
2022-09-09T23:10:46.904Z,101567.93
2022-09-09T23:13:57.313Z,101562.63
2022-09-09T23:17:03.100Z,101558.34
2022-09-09T23:20:04.740Z,101556.47
2022-09-09T23:22:51.915Z,101553.22
2022-09-09T23:25:44.700Z,101546.36
2022-09-09T23:28:30.753Z,101555.26
2022-09-09T23:31:26.263Z,101554.89
2022-09-09T23:34:31.322Z,101556.79
2022-09-09T23:37:38.184Z,101559.70
2022-09-09T23:40:44.127Z,101553.16
2022-09-09T23:43:51.863Z,101559.45
2022-09-09T23:46:58.516Z,101556.22
2022-09-09T23:50:06.143Z,101550.03
2022-09-09T23:53:11.274Z,101549.19
2022-09-09T23:56:17.255Z,101544.86
2022-09-09T23:59:22.380Z,101548.31
